Time;durP1;ratioP1;P1;durP2;ratioP2;P2;SDS_P1;SDS_P2;PMS_P1;PMS_P2;Temp;Humidity;BMP_temperature;BMP_pressure;BME280_temperature;BME280_humidity;BME280_pressure;Samples;Min_cycle;Max_cycle;Signal;HPM_P1;HPM_P2
2023/08/22 00:00:45;;;;;;;13.23;10.93;;;;;;;25.78;58.25;99501.88;4354567;32;33949;-85
2023/08/22 00:03:13;;;;;;;15.43;11.25;;;;;;;25.73;58.39;99502.97;4348405;32;34088;-86
2023/08/22 00:05:41;;;;;;;14.25;12.05;;;;;;;25.79;58.41;99500.97;4355824;32;34488;-85
2023/08/22 00:08:09;;;;;;;16.60;11.02;;;;;;;25.83;58.41;99497.25;4350920;32;33113;-86
2023/08/22 00:10:36;;;;;;;11.80;10.55;;;;;;;25.85;58.57;99498.06;4359856;32;34907;-86
2023/08/22 00:13:04;;;;;;;13.10;10.35;;;;;;;25.85;58.50;99493.62;4354502;32;33981;-87
2023/08/22 00:15:31;;;;;;;15.82;10.70;;;;;;;25.83;58.41;99498.13;4345664;32;33700;-91
2023/08/22 00:17:59;;;;;;;13.57;10.65;;;;;;;25.84;58.13;99499.00;4344302;33;33607;-90
2023/08/22 00:20:27;;;;;;;13.65;10.98;;;;;;;25.84;57.88;99483.94;4355732;32;35038;-90
2023/08/22 00:22:55;;;;;;;13.98;11.15;;;;;;;25.82;57.78;99493.75;4356057;32;33745;-85
2023/08/22 00:25:22;;;;;;;13.80;10.95;;;;;;;25.82;57.83;99496.41;4346419;33;34826;-89
2023/08/22 00:27:50;;;;;;;13.90;11.00;;;;;;;25.84;58.10;99499.00;4346269;33;35045;-88
2023/08/22 00:30:17;;;;;;;11.70;10.50;;;;;;;25.78;58.07;99493.94;4355396;32;35791;-88
2023/08/22 00:32:45;;;;;;;14.48;10.70;;;;;;;25.75;58.26;99494.06;4359475;32;34093;-86
2023/08/22 00:35:14;;;;;;;13.75;11.15;;;;;;;25.67;58.41;99497.06;4356018;32;34257;-87
2023/08/22 00:37:43;;;;;;;13.23;11.30;;;;;;;25.70;58.36;99492.47;4345345;32;33918;-89
2023/08/22 00:40:12;;;;;;;13.43;12.02;;;;;;;25.71;58.28;99494.19;4350546;32;34017;-86
2023/08/22 00:42:39;;;;;;;13.62;11.18;;;;;;;25.67;58.41;99495.25;4346196;32;33704;-87
2023/08/22 00:45:07;;;;;;;12.98;11.75;;;;;;;25.68;58.50;99491.69;4346026;33;33518;-88
2023/08/22 00:47:35;;;;;;;14.35;12.20;;;;;;;25.70;58.49;99489.81;4346178;33;33997;-87
2023/08/22 00:50:04;;;;;;;13.48;12.15;;;;;;;25.69;58.75;99489.91;4351596;32;34514;-86
2023/08/22 00:52:32;;;;;;;15.13;13.52;;;;;;;25.59;59.10;99497.37;4354929;32;33755;-85
2023/08/22 00:55:00;;;;;;;13.10;11.57;;;;;;;25.62;58.85;99493.75;4346385;32;33607;-86
2023/08/22 00:57:28;;;;;;;12.57;11.27;;;;;;;25.58;58.96;99497.47;4369137;32;34111;-86
2023/08/22 00:59:55;;;;;;;12.45;11.12;;;;;;;25.56;59.01;99491.34;4352039;32;34111;-86
2023/08/22 01:02:23;;;;;;;13.50;11.70;;;;;;;25.54;59.01;99496.72;4356082;32;34729;-85
2023/08/22 01:04:51;;;;;;;16.85;11.73;;;;;;;25.57;58.78;99488.63;4345663;32;33571;-89
2023/08/22 01:07:26;;;;;;;14.13;11.85;;;;;;;25.51;58.85;99496.84;4348284;32;33667;-86
2023/08/22 01:10:20;;;;;;;12.23;10.98;;;;;;;25.51;58.86;99498.66;4352047;32;33393;-87
2023/08/22 01:12:53;;;;;;;12.70;11.15;;;;;;;25.49;58.79;99498.69;4344646;32;34243;-89
2023/08/22 01:15:26;;;;;;;12.35;10.68;;;;;;;25.51;58.60;99490.69;4355714;32;33543;-87
2023/08/22 01:17:56;;;;;;;14.75;10.95;;;;;;;25.42;58.73;99497.22;4346235;32;34005;-85
2023/08/22 01:20:27;;;;;;;12.45;11.12;;;;;;;25.39;58.58;99497.41;4351607;32;34222;-86
2023/08/22 01:22:56;;;;;;;12.50;10.77;;;;;;;25.39;58.41;99490.28;4359524;32;33691;-87
2023/08/22 01:25:26;;;;;;;16.70;10.73;;;;;;;25.47;58.14;99489.97;4360294;32;34052;-89
2023/08/22 01:28:16;;;;;;;14.18;10.88;;;;;;;25.47;58.37;99493.47;4349091;32;34890;-86
2023/08/22 01:30:58;;;;;;;12.27;11.07;;;;;;;25.40;58.68;99491.16;4348000;32;34159;-87
2023/08/22 01:33:36;;;;;;;12.37;10.57;;;;;;;25.29;59.18;99480.13;4344418;33;34730;-91
2023/08/22 01:36:06;;;;;;;11.68;10.48;;;;;;;25.30;59.12;99481.84;4346948;32;33408;-87
2023/08/22 01:38:35;;;;;;;12.55;11.25;;;;;;;25.21;59.05;99493.72;4359498;32;34933;-87
2023/08/22 01:41:02;;;;;;;12.02;10.73;;;;;;;25.18;59.18;99488.53;4346369;32;34773;-87
2023/08/22 01:43:33;;;;;;;15.63;11.73;;;;;;;25.21;59.04;99485.75;4344348;33;34782;-87
2023/08/22 01:46:01;;;;;;;14.27;12.35;;;;;;;25.18;59.31;99483.22;4346322;32;33469;-90
2023/08/22 01:48:29;;;;;;;13.90;12.15;;;;;;;25.09;59.73;99488.91;4360191;32;33381;-88
2023/08/22 01:50:56;;;;;;;13.85;11.48;;;;;;;25.16;59.68;99485.97;4348530;32;33431;-87
2023/08/22 01:53:25;;;;;;;14.63;12.00;;;;;;;25.09;59.80;99481.78;4345555;33;33837;-90
2023/08/22 01:55:52;;;;;;;15.20;11.93;;;;;;;25.08;59.80;99488.03;4344851;32;34302;-87
2023/08/22 01:58:20;;;;;;;13.95;12.18;;;;;;;25.07;59.83;99485.44;4360216;32;33604;-92
2023/08/22 02:00:47;;;;;;;14.55;12.48;;;;;;;24.90;60.55;99489.66;4348896;32;33630;-90
2023/08/22 02:03:15;;;;;;;14.45;12.25;;;;;;;25.01;60.35;99491.88;4345826;32;33662;-88
2023/08/22 02:05:43;;;;;;;13.43;12.02;;;;;;;25.02;60.33;99490.94;4345529;32;32947;-87
2023/08/22 02:08:10;;;;;;;16.90;11.88;;;;;;;25.04;60.23;99486.44;4357063;32;33233;-90
2023/08/22 02:10:38;;;;;;;15.82;12.23;;;;;;;24.99;60.09;99483.94;4357081;32;34013;-87
2023/08/22 02:13:05;;;;;;;16.25;12.30;;;;;;;24.97;60.23;99480.50;4360372;32;34956;-88
2023/08/22 02:15:33;;;;;;;13.25;11.95;;;;;;;25.04;59.92;99481.13;4356740;32;33522;-86
2023/08/22 02:18:02;;;;;;;13.95;11.32;;;;;;;25.01;59.95;99481.25;4353082;32;33809;-91
2023/08/22 02:20:30;;;;;;;11.98;10.75;;;;;;;24.94;60.10;99477.13;4342853;32;32958;-87
2023/08/22 02:22:58;;;;;;;14.43;11.07;;;;;;;24.99;59.88;99485.75;4356697;32;35198;-89
2023/08/22 02:25:26;;;;;;;12.68;11.32;;;;;;;24.92;60.13;99484.28;4347761;32;33997;-86
2023/08/22 02:27:54;;;;;;;14.93;12.27;;;;;;;24.94;59.97;99485.94;4348739;32;34299;-89
2023/08/22 02:30:22;;;;;;;13.13;11.73;;;;;;;24.98;59.90;99471.62;4349818;32;33815;-88
2023/08/22 02:32:50;;;;;;;12.68;11.38;;;;;;;25.03;60.07;99478.53;4359481;32;33604;-86
2023/08/22 02:35:19;;;;;;;13.65;11.68;;;;;;;25.02;60.10;99475.00;4344189;32;34345;-84
2023/08/22 02:37:47;;;;;;;13.48;12.10;;;;;;;24.98;60.15;99481.38;4349935;32;33941;-87
2023/08/22 02:40:15;;;;;;;14.05;12.55;;;;;;;24.92;60.47;99476.31;4351041;32;34672;-86
2023/08/22 02:42:43;;;;;;;15.15;12.90;;;;;;;24.96;60.07;99476.16;4350853;32;33312;-86
2023/08/22 02:45:10;;;;;;;15.50;12.32;;;;;;;24.95;60.03;99470.88;4350492;32;34828;-86
2023/08/22 02:47:38;;;;;;;14.18;12.35;;;;;;;24.99;59.91;99477.78;4343944;33;34470;-86
2023/08/22 02:50:07;;;;;;;13.43;12.02;;;;;;;24.98;59.99;99476.06;4343854;33;33755;-87
2023/08/22 02:52:35;;;;;;;13.73;12.00;;;;;;;24.97;60.03;99482.31;4342069;33;34548;-87
2023/08/22 02:55:04;;;;;;;13.20;11.80;;;;;;;24.99;59.97;99476.00;4343668;33;33528;-86
2023/08/22 02:57:31;;;;;;;16.60;12.60;;;;;;;25.06;59.75;99473.97;4343320;33;33686;-90
2023/08/22 02:59:59;;;;;;;15.45;12.50;;;;;;;24.96;60.21;99483.22;4343254;33;34697;-87
2023/08/22 03:02:26;;;;;;;15.07;12.55;;;;;;;25.06;60.07;99483.72;4347241;32;33835;-87
2023/08/22 03:04:54;;;;;;;14.95;12.20;;;;;;;24.93;60.37;99478.91;4351977;32;34330;-88
2023/08/22 03:07:22;;;;;;;13.20;11.40;;;;;;;24.89;60.64;99481.72;4351099;32;33351;-86
2023/08/22 03:09:50;;;;;;;14.20;12.80;;;;;;;24.87;60.79;99479.16;4349952;32;34030;-85
2023/08/22 03:12:18;;;;;;;14.68;12.40;;;;;;;24.83;60.81;99482.87;4348796;32;34649;-91
2023/08/22 03:14:46;;;;;;;14.07;12.37;;;;;;;24.82;60.72;99486.44;4352751;32;34273;-86
2023/08/22 03:17:14;;;;;;;22.87;13.55;;;;;;;24.85;60.62;99482.78;4353120;32;33672;-85
2023/08/22 03:19:42;;;;;;;13.25;11.80;;;;;;;24.85;60.52;99488.09;4350760;32;34189;-86
2023/08/22 03:22:10;;;;;;;14.60;13.15;;;;;;;24.89;60.37;99481.72;4352057;32;34134;-87
2023/08/22 03:24:38;;;;;;;14.48;12.98;;;;;;;24.84;60.47;99481.94;4345417;33;33437;-87
2023/08/22 03:27:05;;;;;;;15.27;12.77;;;;;;;24.85;60.74;99488.09;4344493;33;34665;-87
2023/08/22 03:29:33;;;;;;;15.15;12.70;;;;;;;24.84;60.82;99483.72;4343848;32;33870;-86
2023/08/22 03:32:00;;;;;;;16.20;12.98;;;;;;;24.75;61.08;99491.13;4352298;32;34305;-87
2023/08/22 03:34:32;;;;;;;15.85;13.45;;;;;;;24.73;61.08;99492.97;4350861;32;33080;-86
2023/08/22 03:37:00;;;;;;;16.08;13.45;;;;;;;24.71;61.27;99494.81;4351580;32;33670;-86
2023/08/22 03:39:28;;;;;;;14.50;13.10;;;;;;;24.78;61.09;99487.50;4351420;32;34151;-87
2023/08/22 03:41:56;;;;;;;15.75;14.05;;;;;;;24.74;61.13;99494.72;4350286;32;32546;-87
2023/08/22 03:44:24;;;;;;;15.63;13.90;;;;;;;24.73;61.18;99486.81;4350139;32;33562;-90
2023/08/22 03:46:52;;;;;;;15.68;14.05;;;;;;;24.68;61.34;99484.34;4344074;33;32343;-88
2023/08/22 03:49:21;;;;;;;16.98;13.15;;;;;;;24.72;61.21;99480.63;4344841;33;33686;-86
2023/08/22 03:51:49;;;;;;;15.57;13.40;;;;;;;24.71;61.35;99478.91;4350674;32;34606;-87
2023/08/22 03:54:17;;;;;;;15.80;13.60;;;;;;;24.70;61.47;99482.50;4352867;32;32362;-86
2023/08/22 03:56:44;;;;;;;16.30;13.75;;;;;;;24.59;61.93;99474.13;4352909;32;33593;-88
2023/08/22 03:59:12;;;;;;;16.55;12.77;;;;;;;24.68;61.71;99479.03;4352942;32;34000;-86
2023/08/22 04:01:42;;;;;;;16.50;14.30;;;;;;;24.65;61.85;99483.59;4352499;32;33725;-86
2023/08/22 04:04:14;;;;;;;14.77;13.23;;;;;;;24.66;61.75;99480.91;4351328;32;33085;-88
2023/08/22 04:06:41;;;;;;;15.73;14.18;;;;;;;24.72;61.55;99485.09;4350135;32;33591;-85
2023/08/22 04:09:09;;;;;;;17.12;14.93;;;;;;;24.71;61.58;99486.88;4352088;32;33909;-85
2023/08/22 04:11:37;;;;;;;16.58;13.80;;;;;;;24.74;61.64;99494.72;4344070;33;34169;-85
2023/08/22 04:14:07;;;;;;;15.38;13.88;;;;;;;24.67;62.10;99493.22;4345095;33;33603;-86
2023/08/22 04:16:35;;;;;;;16.52;14.55;;;;;;;24.70;62.25;99485.16;4345167;33;34435;-87
2023/08/22 04:19:06;;;;;;;15.38;13.75;;;;;;;24.73;62.28;99487.66;4344605;33;34231;-91
2023/08/22 04:21:40;;;;;;;16.42;14.70;;;;;;;24.74;62.30;99485.91;4352048;32;33771;-87
2023/08/22 04:24:09;;;;;;;16.50;14.02;;;;;;;24.79;62.09;99491.88;4351139;32;34048;-85
2023/08/22 04:26:37;;;;;;;16.27;14.55;;;;;;;24.82;62.15;99491.75;4353811;32;33610;-86
2023/08/22 04:29:05;;;;;;;15.23;13.62;;;;;;;24.89;62.31;99492.34;4346056;32;34035;-88
2023/08/22 04:31:33;;;;;;;14.52;13.05;;;;;;;24.90;62.63;99488.78;4357560;32;33978;-87
2023/08/22 04:34:01;;;;;;;16.08;13.52;;;;;;;25.02;62.48;99488.28;4345860;33;33510;-88
2023/08/22 04:36:29;;;;;;;14.95;13.30;;;;;;;25.17;62.10;99486.81;4346016;33;33796;-85
2023/08/22 04:38:56;;;;;;;15.88;12.35;;;;;;;25.33;61.82;99500.28;4345852;33;33847;-87
2023/08/22 04:41:24;;;;;;;15.82;12.10;;;;;;;25.52;61.37;99493.25;4345796;33;33823;-88
2023/08/22 04:43:51;;;;;;;13.45;12.00;;;;;;;25.67;60.78;99489.94;4346256;33;33118;-87
2023/08/22 04:46:19;;;;;;;14.43;11.93;;;;;;;26.03;60.17;99491.94;4345368;33;33966;-90
2023/08/22 04:48:47;;;;;;;13.25;11.90;;;;;;;26.36;59.69;99491.28;4344921;32;35077;-86
2023/08/22 04:51:15;;;;;;;12.85;11.57;;;;;;;26.66;58.92;99492.53;4348580;32;34001;-87
2023/08/22 04:53:45;;;;;;;15.10;11.98;;;;;;;26.96;58.48;99488.47;4348923;32;33176;-88
2023/08/22 04:56:13;;;;;;;14.23;12.27;;;;;;;27.17;57.59;99495.41;4357499;32;33823;-88
2023/08/22 04:58:41;;;;;;;13.18;11.73;;;;;;;27.51;57.34;99491.91;4351328;32;34270;-84
2023/08/22 05:01:08;;;;;;;13.50;11.65;;;;;;;27.58;56.63;99501.28;4346007;33;34221;-84
2023/08/22 05:03:36;;;;;;;13.52;12.15;;;;;;;27.96;55.93;99510.88;4346203;32;33390;-83
2023/08/22 05:06:04;;;;;;;13.20;11.70;;;;;;;28.14;55.55;99502.75;4359453;32;33467;-85
2023/08/22 05:08:32;;;;;;;13.15;11.65;;;;;;;28.36;54.99;99504.28;4352964;32;34924;-85
2023/08/22 05:10:59;;;;;;;17.20;12.57;;;;;;;28.57;54.24;99508.47;4355900;32;34511;-86
2023/08/22 05:13:27;;;;;;;12.75;11.40;;;;;;;28.54;54.43;99516.62;4350007;32;33569;-87
2023/08/22 05:15:55;;;;;;;13.50;11.70;;;;;;;28.80;54.16;99506.31;4346913;32;33541;-87
2023/08/22 05:18:22;;;;;;;12.68;11.38;;;;;;;29.02;52.46;99519.31;4344696;32;35113;-87
2023/08/22 05:20:53;;;;;;;13.60;11.48;;;;;;;28.98;52.54;99515.97;4345867;33;34240;-88
2023/08/22 05:23:21;;;;;;;13.35;11.30;;;;;;;29.14;52.47;99512.41;4345983;32;33558;-87
2023/08/22 05:25:49;;;;;;;13.38;11.50;;;;;;;29.34;52.20;99515.63;4347190;32;33794;-88
2023/08/22 05:28:16;;;;;;;14.52;11.25;;;;;;;29.38;51.99;99516.28;4345827;32;34492;-89
2023/08/22 05:30:44;;;;;;;13.20;11.20;;;;;;;29.25;51.68;99518.84;4346045;33;33409;-89
2023/08/22 05:33:12;;;;;;;16.45;11.05;;;;;;;29.31;51.74;99522.94;4346593;32;33222;-88
2023/08/22 05:35:40;;;;;;;13.77;11.40;;;;;;;29.42;51.98;99512.50;4349583;32;33808;-87
2023/08/22 05:38:07;;;;;;;12.68;10.80;;;;;;;29.45;52.23;99517.66;4345672;32;34898;-91
2023/08/22 05:40:35;;;;;;;14.00;10.50;;;;;;;29.53;52.33;99503.84;4346794;32;34140;-94
2023/08/22 05:43:03;;;;;;;13.00;11.60;;;;;;;29.51;52.70;99522.66;4345516;33;33459;-87
2023/08/22 05:45:31;;;;;;;12.13;10.82;;;;;;;29.44;53.15;99523.09;4357202;32;34124;-86
2023/08/22 05:47:59;;;;;;;13.48;11.90;;;;;;;29.42;53.29;99525.84;4360663;32;34024;-85
2023/08/22 05:50:27;;;;;;;12.68;11.32;;;;;;;29.60;53.08;99515.91;4360453;32;34844;-92
2023/08/22 05:52:54;;;;;;;14.40;11.70;;;;;;;29.33;54.78;99521.06;4360464;32;33621;-85
2023/08/22 05:55:22;;;;;;;13.02;11.57;;;;;;;29.18;55.04;99527.31;4351049;32;33705;-85
2023/08/22 05:57:50;;;;;;;17.77;12.55;;;;;;;29.35;54.66;99527.16;4345374;32;34807;-86
2023/08/22 06:00:17;;;;;;;16.15;12.27;;;;;;;29.46;53.29;99529.19;4352137;32;34218;-86
2023/08/22 06:02:49;;;;;;;14.45;12.57;;;;;;;29.48;52.17;99527.31;4358499;32;33849;-87
2023/08/22 06:05:16;;;;;;;14.95;12.52;;;;;;;29.46;52.48;99530.03;4359493;32;33756;-86
2023/08/22 06:07:44;;;;;;;15.57;12.60;;;;;;;29.30;53.34;99532.78;4348687;32;34092;-86
2023/08/22 06:10:12;;;;;;;14.45;12.25;;;;;;;29.25;53.28;99534.00;4344446;33;32607;-85
2023/08/22 06:12:40;;;;;;;18.52;13.07;;;;;;;29.46;52.70;99537.22;4344421;33;34487;-89
2023/08/22 06:15:08;;;;;;;15.75;11.63;;;;;;;29.09;54.01;99536.69;4351610;32;34076;-89
2023/08/22 06:17:37;;;;;;;13.25;11.88;;;;;;;29.16;53.53;99530.03;4352775;32;34155;-86
2023/08/22 06:20:15;;;;;;;16.90;11.68;;;;;;;28.33;54.35;99531.97;4349707;32;33950;-87
2023/08/22 06:22:42;;;;;;;15.57;12.27;;;;;;;28.71;55.26;99536.16;4347117;32;33550;-91
2023/08/22 06:25:10;;;;;;;14.30;11.10;;;;;;;28.92;55.10;99529.63;4359921;32;34944;-90
2023/08/22 06:27:37;;;;;;;13.50;11.63;;;;;;;28.80;53.22;99528.50;4360218;32;33783;-90
2023/08/22 06:30:06;;;;;;;13.70;11.77;;;;;;;28.63;53.90;99536.59;4360172;32;34837;-88
2023/08/22 06:32:34;;;;;;;12.73;11.32;;;;;;;28.76;53.61;99531.44;4357800;32;34213;-90
2023/08/22 06:35:03;;;;;;;14.23;11.23;;;;;;;29.06;52.95;99529.72;4345584;32;34753;-88
2023/08/22 06:37:31;;;;;;;12.82;11.45;;;;;;;28.78;54.65;99529.53;4359044;32;34268;-89
2023/08/22 06:39:59;;;;;;;14.35;11.38;;;;;;;28.64;54.03;99534.78;4358111;32;34856;-87
2023/08/22 06:42:26;;;;;;;16.77;11.75;;;;;;;28.90;54.72;99534.16;4358614;32;33403;-87
2023/08/22 06:44:54;;;;;;;13.38;11.00;;;;;;;28.88;55.17;99533.41;4359747;32;34009;-88
2023/08/22 06:47:32;;;;;;;13.52;11.10;;;;;;;29.11;53.54;99537.47;4358221;32;34168;-87
2023/08/22 06:50:09;;;;;;;19.62;12.43;;;;;;;28.97;54.82;99534.69;4360785;32;34645;-88
2023/08/22 06:52:43;;;;;;;17.15;11.48;;;;;;;28.86;54.04;99536.16;4349714;32;34586;-88
2023/08/22 06:55:11;;;;;;;15.20;11.00;;;;;;;29.13;52.93;99532.03;4346712;33;34068;-88
2023/08/22 06:57:38;;;;;;;14.77;11.18;;;;;;;29.00;54.06;99524.72;4346626;33;34168;-89
2023/08/22 07:00:15;;;;;;;16.25;11.10;;;;;;;29.37;52.17;99527.94;4353107;32;34155;-89
2023/08/22 07:02:44;;;;;;;14.38;11.75;;;;;;;29.50;52.73;99528.06;4352275;32;33410;-88
2023/08/22 07:05:14;;;;;;;17.02;11.70;;;;;;;29.90;51.64;99521.22;4352334;32;33765;-88
2023/08/22 07:07:42;;;;;;;14.52;11.50;;;;;;;29.98;53.04;99523.41;4346846;32;34695;-89
2023/08/22 07:10:12;;;;;;;16.75;11.45;;;;;;;30.19;52.71;99522.13;4352290;32;34105;-90
2023/08/22 07:12:44;;;;;;;15.05;11.60;;;;;;;29.85;51.89;99530.44;4349809;32;33609;-88
2023/08/22 07:15:12;;;;;;;16.08;11.30;;;;;;;30.06;52.42;99534.50;4347443;32;34812;-88
2023/08/22 07:17:39;;;;;;;12.70;11.35;;;;;;;29.90;52.89;99526.56;4356420;32;34256;-89
2023/08/22 07:20:13;;;;;;;20.88;12.10;;;;;;;30.09;52.81;99530.78;4352199;32;34097;-90
2023/08/22 07:22:40;;;;;;;13.07;10.57;;;;;;;30.35;51.55;99527.38;4349870;32;34244;-88
2023/08/22 07:25:09;;;;;;;14.02;11.38;;;;;;;30.58;51.82;99531.25;4352596;32;33643;-86
2023/08/22 07:27:36;;;;;;;14.60;11.15;;;;;;;30.76;51.70;99534.56;4352775;32;34300;-87
2023/08/22 07:30:04;;;;;;;13.75;11.50;;;;;;;30.89;50.35;99530.16;4352876;32;34746;-86
2023/08/22 07:32:32;;;;;;;15.13;11.32;;;;;;;31.02;50.15;99530.19;4347074;32;33601;-87
2023/08/22 07:35:00;;;;;;;13.23;11.15;;;;;;;30.74;52.39;99536.50;4351730;32;34072;-87
2023/08/22 07:37:29;;;;;;;16.58;10.82;;;;;;;30.88;50.59;99533.78;4349351;32;35101;-86
2023/08/22 07:39:56;;;;;;;13.73;10.93;;;;;;;31.22;50.19;99532.44;4346705;32;34276;-86
2023/08/22 07:42:24;;;;;;;13.88;12.00;;;;;;;31.30;50.13;99529.28;4355618;32;33769;-90
2023/08/22 07:44:51;;;;;;;14.25;11.05;;;;;;;31.08;48.58;99526.28;4360916;32;33768;-90
2023/08/22 07:47:19;;;;;;;16.83;10.88;;;;;;;31.01;48.15;99523.13;4358147;32;34225;-87
2023/08/22 07:49:47;;;;;;;20.17;12.20;;;;;;;31.20;50.50;99525.44;4353406;32;34228;-85
2023/08/22 07:52:14;;;;;;;13.50;11.18;;;;;;;31.30;48.89;99526.59;4354740;32;33715;-89
2023/08/22 07:54:41;;;;;;;17.17;10.75;;;;;;;31.07;48.22;99532.59;4352487;32;34543;-89
2023/08/22 07:57:11;;;;;;;13.00;10.65;;;;;;;31.10;48.43;99521.66;4371305;32;33567;-88
2023/08/22 07:59:45;;;;;;;12.48;10.45;;;;;;;31.18;47.34;99519.34;4357215;32;33588;-90
2023/08/22 08:02:13;;;;;;;14.87;11.52;;;;;;;31.33;47.30;99523.72;4360796;32;33161;-89
2023/08/22 08:04:41;;;;;;;16.55;10.55;;;;;;;31.34;45.77;99525.41;4361043;32;33932;-86
2023/08/22 08:07:09;;;;;;;15.73;11.18;;;;;;;31.45;46.16;99522.88;4360715;32;34932;-86
2023/08/22 08:09:36;;;;;;;16.23;11.15;;;;;;;31.61;46.71;99524.50;4360769;32;35186;-87
2023/08/22 08:12:04;;;;;;;13.93;11.40;;;;;;;31.41;45.49;99518.69;4360604;32;34295;-87
2023/08/22 08:14:32;;;;;;;13.10;10.65;;;;;;;31.45;46.40;99528.22;4346038;32;34091;-88
2023/08/22 08:17:00;;;;;;;11.82;9.90;;;;;;;31.41;48.06;99526.72;4344966;33;33072;-86
2023/08/22 08:19:28;;;;;;;17.80;11.45;;;;;;;31.70;45.07;99526.53;4345783;33;34038;-85
2023/08/22 08:21:56;;;;;;;15.63;11.12;;;;;;;31.71;44.70;99528.28;4346032;33;34661;-87
2023/08/22 08:24:24;;;;;;;14.85;10.23;;;;;;;31.65;44.90;99531.38;4345958;33;34002;-88
2023/08/22 08:26:52;;;;;;;12.35;10.45;;;;;;;31.76;45.45;99536.84;4344899;33;33474;-87
2023/08/22 08:29:19;;;;;;;12.35;10.20;;;;;;;32.06;46.10;99536.56;4349350;32;35056;-87
2023/08/22 08:31:47;;;;;;;13.73;10.55;;;;;;;32.29;48.25;99532.25;4359662;32;33552;-87
2023/08/22 08:34:15;;;;;;;13.48;10.40;;;;;;;32.31;45.33;99524.09;4345697;32;34574;-86
2023/08/22 08:36:42;;;;;;;16.27;11.07;;;;;;;32.30;44.61;99530.44;4344771;33;34254;-87
2023/08/22 08:39:10;;;;;;;13.55;10.95;;;;;;;32.27;44.65;99530.66;4345051;33;35004;-89
2023/08/22 08:41:49;;;;;;;14.55;10.52;;;;;;;32.34;48.49;99527.41;4356064;32;33322;-88
2023/08/22 08:44:17;;;;;;;15.30;11.55;;;;;;;32.40;44.93;99524.34;4357414;32;34228;-89
2023/08/22 08:46:48;;;;;;;13.68;11.45;;;;;;;32.58;42.79;99534.69;4358978;32;35298;-89
2023/08/22 08:49:16;;;;;;;11.48;10.23;;;;;;;32.41;42.19;99518.00;4358367;32;35600;-90
2023/08/22 08:51:44;;;;;;;11.95;10.70;;;;;;;32.58;45.90;99524.84;4358926;32;34998;-89
2023/08/22 08:54:12;;;;;;;13.30;10.38;;;;;;;32.30;42.94;99515.19;4359384;32;34040;-90
2023/08/22 08:56:40;;;;;;;16.65;11.15;;;;;;;32.33;42.72;99514.97;4359557;32;34809;-90
2023/08/22 08:59:08;;;;;;;12.25;10.57;;;;;;;32.20;43.47;99514.13;4360838;32;34210;-88
2023/08/22 09:01:36;;;;;;;13.90;9.23;;;;;;;32.66;44.22;99526.97;4354577;32;34547;-91
2023/08/22 09:04:04;;;;;;;15.00;10.20;;;;;;;32.62;40.56;99525.47;4345964;33;33448;-89
2023/08/22 09:06:31;;;;;;;12.18;10.85;;;;;;;32.40;40.72;99513.59;4345932;33;35228;-88
2023/08/22 09:09:04;;;;;;;20.65;11.45;;;;;;;32.33;41.46;99509.59;4359046;32;33880;-90
2023/08/22 09:11:31;;;;;;;13.25;10.70;;;;;;;32.29;44.06;99507.25;4360470;32;33728;-87
2023/08/22 09:13:59;;;;;;;15.23;9.77;;;;;;;32.81;43.97;99511.56;4360629;32;34790;-91
2023/08/22 09:16:28;;;;;;;17.73;11.48;;;;;;;32.84;42.53;99509.47;4360816;32;34885;-88
2023/08/22 09:19:00;;;;;;;16.37;11.38;;;;;;;33.09;40.26;99505.00;4359155;32;34295;-90
2023/08/22 09:21:28;;;;;;;16.12;12.57;;;;;;;33.03;41.17;99500.09;4360674;32;34761;-91
2023/08/22 09:24:09;;;;;;;12.68;10.45;;;;;;;32.72;40.64;99496.97;4360762;32;33693;-89
2023/08/22 09:26:37;;;;;;;14.68;10.82;;;;;;;32.93;46.56;99498.09;4346917;32;34150;-87
2023/08/22 09:29:05;;;;;;;13.25;10.50;;;;;;;32.98;44.40;99496.91;4354584;32;34216;-88
2023/08/22 09:31:36;;;;;;;21.33;10.77;;;;;;;32.68;40.56;99495.47;4345454;33;34462;-86
2023/08/22 09:34:12;;;;;;;15.20;10.27;;;;;;;32.74;41.87;99495.03;4345814;33;34139;-91
2023/08/22 09:36:45;;;;;;;13.00;10.00;;;;;;;33.10;40.42;99490.59;4345750;33;34074;-84
2023/08/22 09:39:16;;;;;;;13.82;10.43;;;;;;;33.42;38.08;99489.03;4349650;32;35069;-84
2023/08/22 09:41:43;;;;;;;14.23;10.02;;;;;;;33.22;44.34;99495.03;4360692;32;33412;-85
2023/08/22 09:44:11;;;;;;;18.12;12.13;;;;;;;33.51;40.26;99481.25;4358521;32;34016;-83
2023/08/22 09:46:42;;;;;;;14.98;10.65;;;;;;;32.93;41.52;99484.69;4359232;32;34002;-83
2023/08/22 09:49:15;;;;;;;14.00;9.70;;;;;;;33.23;39.94;99480.66;4360364;32;33677;-83
2023/08/22 09:51:44;;;;;;;12.25;10.20;;;;;;;33.66;40.17;99477.38;4345242;33;33618;-83
2023/08/22 09:54:13;;;;;;;12.30;10.43;;;;;;;33.69;41.91;99477.13;4344479;33;34800;-82
2023/08/22 09:56:41;;;;;;;13.20;10.48;;;;;;;33.52;42.78;99474.87;4345621;33;34727;-84
2023/08/22 09:59:11;;;;;;;13.32;10.30;;;;;;;33.54;40.52;99478.31;4345298;33;34326;-83
2023/08/22 10:01:39;;;;;;;13.23;10.77;;;;;;;33.83;38.02;99466.16;4344157;33;34652;-83
2023/08/22 10:04:07;;;;;;;14.40;9.90;;;;;;;33.63;41.94;99474.91;4345391;33;34909;-82
2023/08/22 10:06:36;;;;;;;15.30;10.80;;;;;;;33.81;39.75;99467.25;4343522;33;33340;-86
2023/08/22 10:09:14;;;;;;;12.88;9.90;;;;;;;33.98;39.71;99463.22;4345322;33;34050;-82
2023/08/22 10:11:54;;;;;;;13.98;10.07;;;;;;;34.04;39.22;99458.22;4345348;33;34079;-82
2023/08/22 10:14:27;;;;;;;14.68;10.48;;;;;;;33.65;40.16;99462.22;4359321;32;34554;-82
2023/08/22 10:16:55;;;;;;;15.07;10.48;;;;;;;33.72;36.99;99462.56;4344078;33;33734;-84
2023/08/22 10:19:26;;;;;;;12.43;10.52;;;;;;;33.94;38.40;99459.03;4356248;32;34261;-83
2023/08/22 10:21:54;;;;;;;11.75;9.90;;;;;;;33.92;39.84;99461.03;4343309;33;34343;-86
2023/08/22 10:24:31;;;;;;;12.15;9.90;;;;;;;34.08;40.80;99454.31;4345573;33;33867;-84
2023/08/22 10:27:12;;;;;;;13.77;10.60;;;;;;;33.95;38.32;99453.56;4358741;32;35125;-91
2023/08/22 10:29:46;;;;;;;13.88;11.07;;;;;;;34.05;39.89;99456.38;4360179;32;33719;-82
2023/08/22 10:32:14;;;;;;;14.87;10.30;;;;;;;34.28;37.94;99447.31;4354636;32;33869;-92
2023/08/22 10:34:41;;;;;;;12.13;9.77;;;;;;;34.31;37.40;99444.37;4345204;33;34058;-84
2023/08/22 10:37:11;;;;;;;10.52;9.43;;;;;;;34.51;38.91;99447.31;4353547;32;33751;-85
2023/08/22 10:39:40;;;;;;;11.07;9.52;;;;;;;34.44;39.27;99454.13;4349195;32;33735;-84
2023/08/22 10:42:13;;;;;;;11.07;9.82;;;;;;;34.41;37.40;99443.66;4351790;32;33783;-84
2023/08/22 10:44:42;;;;;;;15.93;10.13;;;;;;;34.23;36.89;99441.47;4358890;32;33541;-84
2023/08/22 10:47:16;;;;;;;10.65;9.55;;;;;;;34.49;36.19;99435.78;4358671;32;35023;-83
2023/08/22 10:49:50;;;;;;;12.73;9.65;;;;;;;34.38;36.72;99437.53;4358325;32;34945;-82
2023/08/22 10:52:37;;;;;;;14.00;10.38;;;;;;;34.32;38.06;99438.03;4362615;32;34076;-91
2023/08/22 10:55:14;;;;;;;12.90;8.90;;;;;;;34.53;37.14;99442.66;4374328;32;33978;-85
2023/08/22 10:57:45;;;;;;;10.70;9.45;;;;;;;34.32;36.10;99439.84;4366588;32;34403;-86
2023/08/22 11:00:22;;;;;;;10.23;9.13;;;;;;;34.38;36.93;99437.53;4359336;32;34278;-84
2023/08/22 11:02:57;;;;;;;11.60;9.80;;;;;;;34.66;37.26;99443.34;4358083;32;34026;-85
2023/08/22 11:05:26;;;;;;;13.38;9.73;;;;;;;34.49;35.46;99433.09;4356380;32;33460;-84
2023/08/22 11:07:54;;;;;;;10.68;9.02;;;;;;;34.62;37.34;99434.66;4343235;33;34188;-82
2023/08/22 11:10:24;;;;;;;10.80;9.25;;;;;;;34.66;37.26;99437.97;4344583;33;34326;-83
2023/08/22 11:12:55;;;;;;;11.55;8.77;;;;;;;34.93;35.90;99429.44;4344358;33;33493;-87
2023/08/22 11:15:23;;;;;;;10.43;9.05;;;;;;;34.33;35.45;99425.44;4343423;33;33644;-87
2023/08/22 11:17:50;;;;;;;9.60;8.57;;;;;;;34.56;36.81;99437.03;4344364;33;34218;-84
2023/08/22 11:20:20;;;;;;;10.27;8.88;;;;;;;34.80;35.24;99434.12;4343207;33;33765;-84
2023/08/22 11:22:48;;;;;;;11.38;8.93;;;;;;;34.85;35.60;99431.91;4344252;33;33869;-84
2023/08/22 11:25:25;;;;;;;13.23;9.30;;;;;;;34.76;33.41;99428.16;4343727;32;34034;-84